Terminal Aerodrome Forecast
Issued by NWS

Home | Current Version | Previous Version | Graphics & Text | Print | Product List | Glossary On
Versions: 1 2 3 4 5 6 7 8 9 10 11 12 13 14 15 16
826
FTUS43 KICT 251857 AAB
TAFSLN
TAF AMD
KSLN 251857Z 2519/2618 18006KT 5SM SHRA BR VCTS SCT015 OVC060CB
      TEMPO 2519/2520 3SM +TSRA BR OVC005CB
     FM252100 36005KT 6SM SHRA VCTS BKN004 OVC020CB
     FM260300 36006KT 4SM -SHRA BR BKN004 OVC015
     FM261100 35009KT P6SM OVC005=

USA.gov is the U.S. government's official web portal to all federal, state and local government web resources and services.